sensor_id;sensor_type;location;lat;lon;timestamp;temperature;humidity
12708;DHT22;6418;50.824;4.718;2022-09-09T00:00:20;14.20;99.90
12708;DHT22;6418;50.824;4.718;2022-09-09T00:02:59;14.30;99.90
12708;DHT22;6418;50.824;4.718;2022-09-09T00:05:33;14.20;99.90
12708;DHT22;6418;50.824;4.718;2022-09-09T00:08:03;14.20;99.90
12708;DHT22;6418;50.824;4.718;2022-09-09T00:10:34;14.20;99.90
12708;DHT22;6418;50.824;4.718;2022-09-09T00:13:13;14.10;99.90
12708;DHT22;6418;50.824;4.718;2022-09-09T00:15:48;14.10;99.90
12708;DHT22;6418;50.824;4.718;2022-09-09T00:18:24;14.10;99.90
12708;DHT22;6418;50.824;4.718;2022-09-09T00:20:58;14.10;99.90
12708;DHT22;6418;50.824;4.718;2022-09-09T00:23:31;14.10;99.90
12708;DHT22;6418;50.824;4.718;2022-09-09T00:26:05;14.10;99.90
12708;DHT22;6418;50.824;4.718;2022-09-09T00:28:39;14.20;99.90
12708;DHT22;6418;50.824;4.718;2022-09-09T00:31:12;14.10;99.90
12708;DHT22;6418;50.824;4.718;2022-09-09T00:33:40;14.10;99.90
12708;DHT22;6418;50.824;4.718;2022-09-09T00:36:13;14.20;99.90
12708;DHT22;6418;50.824;4.718;2022-09-09T00:38:45;14.20;99.90
12708;DHT22;6418;50.824;4.718;2022-09-09T00:41:19;14.20;99.90
12708;DHT22;6418;50.824;4.718;2022-09-09T00:43:56;14.10;99.90
12708;DHT22;6418;50.824;4.718;2022-09-09T00:49:22;14.10;99.90
12708;DHT22;6418;50.824;4.718;2022-09-09T00:52:02;14.20;99.90
12708;DHT22;6418;50.824;4.718;2022-09-09T00:54:40;14.10;99.90
12708;DHT22;6418;50.824;4.718;2022-09-09T00:57:17;14.10;99.90
12708;DHT22;6418;50.824;4.718;2022-09-09T00:59:51;14.20;99.90
12708;DHT22;6418;50.824;4.718;2022-09-09T01:02:26;14.20;99.90
12708;DHT22;6418;50.824;4.718;2022-09-09T01:04:55;14.10;99.90
12708;DHT22;6418;50.824;4.718;2022-09-09T01:07:24;14.10;99.90
12708;DHT22;6418;50.824;4.718;2022-09-09T01:09:57;14.10;99.90
12708;DHT22;6418;50.824;4.718;2022-09-09T01:12:29;14.10;99.90
12708;DHT22;6418;50.824;4.718;2022-09-09T01:15:04;14.10;99.90
12708;DHT22;6418;50.824;4.718;2022-09-09T01:17:50;14.10;99.90
12708;DHT22;6418;50.824;4.718;2022-09-09T01:20:22;14.10;99.90
12708;DHT22;6418;50.824;4.718;2022-09-09T01:23:11;14.20;99.90
12708;DHT22;6418;50.824;4.718;2022-09-09T01:26:17;14.20;99.90
12708;DHT22;6418;50.824;4.718;2022-09-09T01:28:47;14.20;99.90
12708;DHT22;6418;50.824;4.718;2022-09-09T01:31:18;14.20;99.90
12708;DHT22;6418;50.824;4.718;2022-09-09T01:33:46;14.20;99.90
12708;DHT22;6418;50.824;4.718;2022-09-09T01:36:18;14.30;99.90
12708;DHT22;6418;50.824;4.718;2022-09-09T01:38:46;14.30;99.90
12708;DHT22;6418;50.824;4.718;2022-09-09T01:41:13;14.30;99.90
12708;DHT22;6418;50.824;4.718;2022-09-09T01:43:41;14.30;99.90
12708;DHT22;6418;50.824;4.718;2022-09-09T01:46:08;14.30;99.90
12708;DHT22;6418;50.824;4.718;2022-09-09T01:48:36;14.30;99.90
12708;DHT22;6418;50.824;4.718;2022-09-09T01:51:03;14.30;99.90
12708;DHT22;6418;50.824;4.718;2022-09-09T01:53:30;14.30;99.90
12708;DHT22;6418;50.824;4.718;2022-09-09T01:56:04;14.30;99.90
12708;DHT22;6418;50.824;4.718;2022-09-09T01:58:40;14.40;99.90
12708;DHT22;6418;50.824;4.718;2022-09-09T02:01:17;14.40;99.90
12708;DHT22;6418;50.824;4.718;2022-09-09T02:03:51;14.30;99.90
12708;DHT22;6418;50.824;4.718;2022-09-09T02:06:25;14.40;99.90
12708;DHT22;6418;50.824;4.718;2022-09-09T02:08:56;14.40;99.90
12708;DHT22;6418;50.824;4.718;2022-09-09T02:11:26;14.40;99.90
12708;DHT22;6418;50.824;4.718;2022-09-09T02:13:57;14.40;99.90
12708;DHT22;6418;50.824;4.718;2022-09-09T02:16:30;14.40;99.90
12708;DHT22;6418;50.824;4.718;2022-09-09T02:19:02;14.40;99.90
12708;DHT22;6418;50.824;4.718;2022-09-09T02:21:31;14.40;99.90
12708;DHT22;6418;50.824;4.718;2022-09-09T02:24:03;14.40;99.90
12708;DHT22;6418;50.824;4.718;2022-09-09T02:26:31;14.40;99.90
12708;DHT22;6418;50.824;4.718;2022-09-09T02:29:02;14.40;99.90
12708;DHT22;6418;50.824;4.718;2022-09-09T02:31:32;14.40;99.90
12708;DHT22;6418;50.824;4.718;2022-09-09T02:34:01;14.40;99.90
12708;DHT22;6418;50.824;4.718;2022-09-09T02:36:32;14.40;99.90
12708;DHT22;6418;50.824;4.718;2022-09-09T02:39:01;14.40;99.90
12708;DHT22;6418;50.824;4.718;2022-09-09T02:41:32;14.40;99.90
12708;DHT22;6418;50.824;4.718;2022-09-09T02:44:00;14.40;99.90
12708;DHT22;6418;50.824;4.718;2022-09-09T02:46:47;14.40;99.90
12708;DHT22;6418;50.824;4.718;2022-09-09T02:49:21;14.30;99.90
12708;DHT22;6418;50.824;4.718;2022-09-09T02:51:56;14.30;99.90
12708;DHT22;6418;50.824;4.718;2022-09-09T02:54:29;14.30;99.90
12708;DHT22;6418;50.824;4.718;2022-09-09T02:57:01;14.30;99.90
12708;DHT22;6418;50.824;4.718;2022-09-09T02:59:29;14.30;99.90
12708;DHT22;6418;50.824;4.718;2022-09-09T03:01:58;14.30;99.90
12708;DHT22;6418;50.824;4.718;2022-09-09T03:04:25;14.30;99.90
12708;DHT22;6418;50.824;4.718;2022-09-09T03:06:51;14.30;99.90
12708;DHT22;6418;50.824;4.718;2022-09-09T03:09:18;14.30;99.90
12708;DHT22;6418;50.824;4.718;2022-09-09T03:11:45;14.30;99.90
12708;DHT22;6418;50.824;4.718;2022-09-09T03:14:12;14.30;99.90
12708;DHT22;6418;50.824;4.718;2022-09-09T03:16:39;14.30;99.90
12708;DHT22;6418;50.824;4.718;2022-09-09T03:19:07;14.30;99.90
12708;DHT22;6418;50.824;4.718;2022-09-09T03:21:34;14.30;99.90
12708;DHT22;6418;50.824;4.718;2022-09-09T03:24:01;14.30;99.90
12708;DHT22;6418;50.824;4.718;2022-09-09T03:26:29;14.30;99.90
12708;DHT22;6418;50.824;4.718;2022-09-09T03:28:57;14.30;99.90
12708;DHT22;6418;50.824;4.718;2022-09-09T03:31:26;14.30;99.90
12708;DHT22;6418;50.824;4.718;2022-09-09T03:33:55;14.30;99.90
12708;DHT22;6418;50.824;4.718;2022-09-09T03:36:25;14.30;99.90
12708;DHT22;6418;50.824;4.718;2022-09-09T03:38:53;14.30;99.90
12708;DHT22;6418;50.824;4.718;2022-09-09T03:41:20;14.30;99.90
12708;DHT22;6418;50.824;4.718;2022-09-09T03:43:49;14.30;99.90
12708;DHT22;6418;50.824;4.718;2022-09-09T03:46:16;14.30;99.90
12708;DHT22;6418;50.824;4.718;2022-09-09T03:48:43;14.30;99.90
12708;DHT22;6418;50.824;4.718;2022-09-09T03:51:10;14.30;99.90
12708;DHT22;6418;50.824;4.718;2022-09-09T03:53:38;14.30;99.90
12708;DHT22;6418;50.824;4.718;2022-09-09T03:56:06;14.30;99.90
12708;DHT22;6418;50.824;4.718;2022-09-09T03:58:34;14.30;99.90
12708;DHT22;6418;50.824;4.718;2022-09-09T04:01:03;14.30;99.90
12708;DHT22;6418;50.824;4.718;2022-09-09T04:03:30;14.30;99.90
12708;DHT22;6418;50.824;4.718;2022-09-09T04:06:01;14.20;99.90
12708;DHT22;6418;50.824;4.718;2022-09-09T04:08:29;14.20;99.90
12708;DHT22;6418;50.824;4.718;2022-09-09T04:10:58;14.30;99.90
12708;DHT22;6418;50.824;4.718;2022-09-09T04:13:26;14.20;99.90
12708;DHT22;6418;50.824;4.718;2022-09-09T04:15:54;14.20;99.90
12708;DHT22;6418;50.824;4.718;2022-09-09T04:18:21;14.20;99.90
12708;DHT22;6418;50.824;4.718;2022-09-09T04:20:49;14.20;99.90
12708;DHT22;6418;50.824;4.718;2022-09-09T04:23:16;14.20;99.90
12708;DHT22;6418;50.824;4.718;2022-09-09T04:25:44;14.20;99.90
12708;DHT22;6418;50.824;4.718;2022-09-09T04:28:13;14.20;99.90
12708;DHT22;6418;50.824;4.718;2022-09-09T04:30:41;14.30;99.90
12708;DHT22;6418;50.824;4.718;2022-09-09T04:33:08;14.30;99.90
12708;DHT22;6418;50.824;4.718;2022-09-09T04:35:35;14.30;99.90
12708;DHT22;6418;50.824;4.718;2022-09-09T04:38:03;14.30;99.90
12708;DHT22;6418;50.824;4.718;2022-09-09T04:40:30;14.30;99.90
12708;DHT22;6418;50.824;4.718;2022-09-09T04:42:58;14.40;99.90
12708;DHT22;6418;50.824;4.718;2022-09-09T04:45:26;14.40;99.90
12708;DHT22;6418;50.824;4.718;2022-09-09T04:47:53;14.40;99.90
12708;DHT22;6418;50.824;4.718;2022-09-09T04:50:20;14.30;99.90
12708;DHT22;6418;50.824;4.718;2022-09-09T04:52:47;14.30;99.90
12708;DHT22;6418;50.824;4.718;2022-09-09T04:55:14;14.40;99.90
12708;DHT22;6418;50.824;4.718;2022-09-09T04:57:41;14.40;99.90
12708;DHT22;6418;50.824;4.718;2022-09-09T05:00:09;14.30;99.90
12708;DHT22;6418;50.824;4.718;2022-09-09T05:02:38;14.30;99.90
12708;DHT22;6418;50.824;4.718;2022-09-09T05:05:07;14.30;99.90
12708;DHT22;6418;50.824;4.718;2022-09-09T05:07:34;14.30;99.90
12708;DHT22;6418;50.824;4.718;2022-09-09T05:10:01;14.30;99.90
12708;DHT22;6418;50.824;4.718;2022-09-09T05:12:31;14.30;99.90
12708;DHT22;6418;50.824;4.718;2022-09-09T05:14:58;14.30;99.90
12708;DHT22;6418;50.824;4.718;2022-09-09T05:17:25;14.30;99.90
12708;DHT22;6418;50.824;4.718;2022-09-09T05:19:53;14.30;99.90
12708;DHT22;6418;50.824;4.718;2022-09-09T05:22:20;14.20;99.90
12708;DHT22;6418;50.824;4.718;2022-09-09T05:24:48;14.30;99.90
12708;DHT22;6418;50.824;4.718;2022-09-09T05:27:16;14.30;99.90
12708;DHT22;6418;50.824;4.718;2022-09-09T05:29:43;14.30;99.90
12708;DHT22;6418;50.824;4.718;2022-09-09T05:32:10;14.40;99.90
12708;DHT22;6418;50.824;4.718;2022-09-09T05:34:39;14.40;99.90
12708;DHT22;6418;50.824;4.718;2022-09-09T05:37:07;14.30;99.90
12708;DHT22;6418;50.824;4.718;2022-09-09T05:39:34;14.40;99.90
12708;DHT22;6418;50.824;4.718;2022-09-09T05:42:02;14.40;99.90
12708;DHT22;6418;50.824;4.718;2022-09-09T05:44:30;14.50;99.90
12708;DHT22;6418;50.824;4.718;2022-09-09T05:46:57;14.50;99.90
12708;DHT22;6418;50.824;4.718;2022-09-09T05:49:24;14.50;99.90
12708;DHT22;6418;50.824;4.718;2022-09-09T05:51:51;14.60;99.90
12708;DHT22;6418;50.824;4.718;2022-09-09T05:54:19;14.60;99.90
12708;DHT22;6418;50.824;4.718;2022-09-09T05:56:46;14.60;99.90
12708;DHT22;6418;50.824;4.718;2022-09-09T05:59:16;14.70;99.90
12708;DHT22;6418;50.824;4.718;2022-09-09T06:01:43;14.70;99.90
12708;DHT22;6418;50.824;4.718;2022-09-09T06:04:10;14.70;99.90
12708;DHT22;6418;50.824;4.718;2022-09-09T06:06:38;14.70;99.90
12708;DHT22;6418;50.824;4.718;2022-09-09T06:09:07;14.80;99.90
12708;DHT22;6418;50.824;4.718;2022-09-09T06:11:38;14.80;99.90
12708;DHT22;6418;50.824;4.718;2022-09-09T06:14:06;14.80;99.90
12708;DHT22;6418;50.824;4.718;2022-09-09T06:16:33;14.90;99.90
12708;DHT22;6418;50.824;4.718;2022-09-09T06:19:01;14.90;99.90
12708;DHT22;6418;50.824;4.718;2022-09-09T06:21:30;15.00;99.90
12708;DHT22;6418;50.824;4.718;2022-09-09T06:23:58;15.00;99.90
12708;DHT22;6418;50.824;4.718;2022-09-09T06:26:26;15.00;99.90
12708;DHT22;6418;50.824;4.718;2022-09-09T06:28:55;15.10;99.90
12708;DHT22;6418;50.824;4.718;2022-09-09T06:31:25;15.10;99.90
12708;DHT22;6418;50.824;4.718;2022-09-09T06:33:53;15.20;99.90
12708;DHT22;6418;50.824;4.718;2022-09-09T06:36:22;15.20;99.90
12708;DHT22;6418;50.824;4.718;2022-09-09T06:38:49;15.30;99.90
12708;DHT22;6418;50.824;4.718;2022-09-09T06:41:17;15.30;99.90
12708;DHT22;6418;50.824;4.718;2022-09-09T06:43:45;15.40;99.90
12708;DHT22;6418;50.824;4.718;2022-09-09T06:46:15;15.40;99.90
12708;DHT22;6418;50.824;4.718;2022-09-09T06:48:43;15.50;99.90
12708;DHT22;6418;50.824;4.718;2022-09-09T06:51:12;15.60;99.90
12708;DHT22;6418;50.824;4.718;2022-09-09T06:53:40;15.60;99.90
12708;DHT22;6418;50.824;4.718;2022-09-09T06:56:19;15.80;99.90
12708;DHT22;6418;50.824;4.718;2022-09-09T06:58:47;15.80;99.90
12708;DHT22;6418;50.824;4.718;2022-09-09T07:01:17;15.90;99.90
12708;DHT22;6418;50.824;4.718;2022-09-09T07:03:46;16.00;99.90
12708;DHT22;6418;50.824;4.718;2022-09-09T07:06:17;16.00;99.90
12708;DHT22;6418;50.824;4.718;2022-09-09T07:08:48;16.00;99.90
12708;DHT22;6418;50.824;4.718;2022-09-09T07:11:16;16.00;99.90
12708;DHT22;6418;50.824;4.718;2022-09-09T07:13:43;16.10;99.90
12708;DHT22;6418;50.824;4.718;2022-09-09T07:16:12;16.10;99.90
12708;DHT22;6418;50.824;4.718;2022-09-09T07:18:40;16.10;99.90
12708;DHT22;6418;50.824;4.718;2022-09-09T07:21:09;16.10;99.90
12708;DHT22;6418;50.824;4.718;2022-09-09T07:23:37;16.10;99.90
12708;DHT22;6418;50.824;4.718;2022-09-09T07:26:08;16.10;99.90
12708;DHT22;6418;50.824;4.718;2022-09-09T07:28:36;16.10;99.90
12708;DHT22;6418;50.824;4.718;2022-09-09T07:31:04;16.20;99.90
12708;DHT22;6418;50.824;4.718;2022-09-09T07:33:32;16.20;99.90
12708;DHT22;6418;50.824;4.718;2022-09-09T07:36:05;16.30;99.90
12708;DHT22;6418;50.824;4.718;2022-09-09T07:38:32;16.30;99.90
12708;DHT22;6418;50.824;4.718;2022-09-09T07:41:04;16.30;99.90
12708;DHT22;6418;50.824;4.718;2022-09-09T07:43:33;16.30;99.90
12708;DHT22;6418;50.824;4.718;2022-09-09T07:46:00;16.40;99.90
12708;DHT22;6418;50.824;4.718;2022-09-09T07:48:28;16.40;99.90
12708;DHT22;6418;50.824;4.718;2022-09-09T07:51:06;16.40;99.90
12708;DHT22;6418;50.824;4.718;2022-09-09T07:53:33;16.40;99.90
12708;DHT22;6418;50.824;4.718;2022-09-09T07:56:06;16.50;99.90
12708;DHT22;6418;50.824;4.718;2022-09-09T07:58:35;16.40;99.90
12708;DHT22;6418;50.824;4.718;2022-09-09T08:01:06;16.50;99.90
12708;DHT22;6418;50.824;4.718;2022-09-09T08:03:34;16.50;99.90
12708;DHT22;6418;50.824;4.718;2022-09-09T08:06:02;16.50;99.90
12708;DHT22;6418;50.824;4.718;2022-09-09T08:08:30;16.50;99.90
12708;DHT22;6418;50.824;4.718;2022-09-09T08:11:08;16.50;99.90
12708;DHT22;6418;50.824;4.718;2022-09-09T08:13:36;16.60;99.90
12708;DHT22;6418;50.824;4.718;2022-09-09T08:16:05;16.70;99.90
12708;DHT22;6418;50.824;4.718;2022-09-09T08:18:32;16.80;99.90
12708;DHT22;6418;50.824;4.718;2022-09-09T08:21:05;16.80;99.90
12708;DHT22;6418;50.824;4.718;2022-09-09T08:23:35;16.90;99.90
12708;DHT22;6418;50.824;4.718;2022-09-09T08:26:07;16.90;99.90
12708;DHT22;6418;50.824;4.718;2022-09-09T08:28:34;17.00;99.90
12708;DHT22;6418;50.824;4.718;2022-09-09T08:31:09;17.10;99.90
12708;DHT22;6418;50.824;4.718;2022-09-09T08:33:36;17.20;99.90
12708;DHT22;6418;50.824;4.718;2022-09-09T08:36:05;17.20;99.90
12708;DHT22;6418;50.824;4.718;2022-09-09T08:38:32;17.30;99.90
12708;DHT22;6418;50.824;4.718;2022-09-09T08:41:12;17.40;99.90
12708;DHT22;6418;50.824;4.718;2022-09-09T08:43:43;17.40;99.90
12708;DHT22;6418;50.824;4.718;2022-09-09T08:46:16;17.50;99.90
12708;DHT22;6418;50.824;4.718;2022-09-09T08:48:56;17.50;99.90
12708;DHT22;6418;50.824;4.718;2022-09-09T08:51:26;17.60;99.90
12708;DHT22;6418;50.824;4.718;2022-09-09T08:53:55;17.60;99.90
12708;DHT22;6418;50.824;4.718;2022-09-09T08:56:25;17.60;99.90
12708;DHT22;6418;50.824;4.718;2022-09-09T08:58:55;17.50;99.90
12708;DHT22;6418;50.824;4.718;2022-09-09T09:01:42;17.50;99.90
12708;DHT22;6418;50.824;4.718;2022-09-09T09:04:22;17.40;99.90
12708;DHT22;6418;50.824;4.718;2022-09-09T09:06:54;17.40;99.90
12708;DHT22;6418;50.824;4.718;2022-09-09T09:09:29;17.30;99.90
12708;DHT22;6418;50.824;4.718;2022-09-09T09:12:02;17.20;99.90
12708;DHT22;6418;50.824;4.718;2022-09-09T09:14:30;17.10;99.90
12708;DHT22;6418;50.824;4.718;2022-09-09T09:17:01;17.00;99.90
12708;DHT22;6418;50.824;4.718;2022-09-09T09:19:32;16.90;99.90
12708;DHT22;6418;50.824;4.718;2022-09-09T09:22:03;16.90;99.90
12708;DHT22;6418;50.824;4.718;2022-09-09T09:24:42;16.80;99.90
12708;DHT22;6418;50.824;4.718;2022-09-09T09:27:16;16.80;99.90
12708;DHT22;6418;50.824;4.718;2022-09-09T09:29:46;16.70;99.90
12708;DHT22;6418;50.824;4.718;2022-09-09T09:32:18;16.60;99.90
12708;DHT22;6418;50.824;4.718;2022-09-09T09:34:49;16.60;99.90
12708;DHT22;6418;50.824;4.718;2022-09-09T09:37:19;16.50;99.90
12708;DHT22;6418;50.824;4.718;2022-09-09T09:39:49;16.50;99.90
12708;DHT22;6418;50.824;4.718;2022-09-09T09:42:18;16.50;99.90
12708;DHT22;6418;50.824;4.718;2022-09-09T09:44:45;16.40;99.90
12708;DHT22;6418;50.824;4.718;2022-09-09T09:47:14;16.40;99.90
12708;DHT22;6418;50.824;4.718;2022-09-09T09:49:51;16.50;99.90
12708;DHT22;6418;50.824;4.718;2022-09-09T09:52:22;16.50;99.90
12708;DHT22;6418;50.824;4.718;2022-09-09T09:54:50;16.50;99.90
12708;DHT22;6418;50.824;4.718;2022-09-09T09:57:24;16.50;99.90
12708;DHT22;6418;50.824;4.718;2022-09-09T10:00:02;16.50;99.90
12708;DHT22;6418;50.824;4.718;2022-09-09T10:02:37;16.60;99.90
12708;DHT22;6418;50.824;4.718;2022-09-09T10:05:12;16.60;99.90
12708;DHT22;6418;50.824;4.718;2022-09-09T10:07:39;16.50;99.90
12708;DHT22;6418;50.824;4.718;2022-09-09T10:10:11;16.60;99.90
12708;DHT22;6418;50.824;4.718;2022-09-09T10:12:51;16.50;99.90
12708;DHT22;6418;50.824;4.718;2022-09-09T10:15:30;16.60;99.90
12708;DHT22;6418;50.824;4.718;2022-09-09T10:18:08;16.60;99.90
12708;DHT22;6418;50.824;4.718;2022-09-09T10:20:45;16.60;99.90
12708;DHT22;6418;50.824;4.718;2022-09-09T10:23:32;16.60;99.90
12708;DHT22;6418;50.824;4.718;2022-09-09T10:26:13;16.60;99.90
12708;DHT22;6418;50.824;4.718;2022-09-09T10:29:07;16.50;99.90
12708;DHT22;6418;50.824;4.718;2022-09-09T10:31:44;16.60;99.90
12708;DHT22;6418;50.824;4.718;2022-09-09T10:34:22;16.60;99.90
12708;DHT22;6418;50.824;4.718;2022-09-09T10:36:57;16.60;99.90
12708;DHT22;6418;50.824;4.718;2022-09-09T10:39:33;16.60;99.90
12708;DHT22;6418;50.824;4.718;2022-09-09T10:42:05;16.70;99.90
12708;DHT22;6418;50.824;4.718;2022-09-09T10:44:54;16.70;99.90
12708;DHT22;6418;50.824;4.718;2022-09-09T10:47:39;16.70;99.90
12708;DHT22;6418;50.824;4.718;2022-09-09T10:50:29;16.70;99.90
12708;DHT22;6418;50.824;4.718;2022-09-09T10:53:08;16.70;99.90
12708;DHT22;6418;50.824;4.718;2022-09-09T10:55:42;16.80;99.90
12708;DHT22;6418;50.824;4.718;2022-09-09T10:58:13;16.80;99.90
12708;DHT22;6418;50.824;4.718;2022-09-09T11:00:45;16.90;99.90
12708;DHT22;6418;50.824;4.718;2022-09-09T11:03:19;17.00;99.90
12708;DHT22;6418;50.824;4.718;2022-09-09T11:05:51;17.00;99.90
12708;DHT22;6418;50.824;4.718;2022-09-09T11:08:20;17.10;99.90
12708;DHT22;6418;50.824;4.718;2022-09-09T11:10:51;17.20;99.90
12708;DHT22;6418;50.824;4.718;2022-09-09T11:13:24;17.30;99.90
12708;DHT22;6418;50.824;4.718;2022-09-09T11:15:58;17.30;99.90
12708;DHT22;6418;50.824;4.718;2022-09-09T11:18:29;17.40;99.90
12708;DHT22;6418;50.824;4.718;2022-09-09T11:21:00;17.50;99.90
12708;DHT22;6418;50.824;4.718;2022-09-09T11:23:36;17.50;99.90
12708;DHT22;6418;50.824;4.718;2022-09-09T11:26:05;17.50;99.90
12708;DHT22;6418;50.824;4.718;2022-09-09T11:28:43;17.60;99.90
12708;DHT22;6418;50.824;4.718;2022-09-09T11:31:27;17.60;99.90
12708;DHT22;6418;50.824;4.718;2022-09-09T11:34:17;17.70;99.90
12708;DHT22;6418;50.824;4.718;2022-09-09T11:37:17;17.70;99.90
12708;DHT22;6418;50.824;4.718;2022-09-09T11:40:14;17.70;99.90
12708;DHT22;6418;50.824;4.718;2022-09-09T11:42:43;17.80;99.90
12708;DHT22;6418;50.824;4.718;2022-09-09T11:45:19;17.90;99.90
12708;DHT22;6418;50.824;4.718;2022-09-09T11:47:53;17.90;99.90
12708;DHT22;6418;50.824;4.718;2022-09-09T11:50:34;18.00;99.90
12708;DHT22;6418;50.824;4.718;2022-09-09T11:53:21;18.00;99.90
12708;DHT22;6418;50.824;4.718;2022-09-09T11:58:37;18.20;99.90
12708;DHT22;6418;50.824;4.718;2022-09-09T12:04:15;18.40;99.90
12708;DHT22;6418;50.824;4.718;2022-09-09T12:06:44;18.50;99.90
12708;DHT22;6418;50.824;4.718;2022-09-09T12:09:41;18.60;99.90
12708;DHT22;6418;50.824;4.718;2022-09-09T12:12:28;18.70;99.90
12708;DHT22;6418;50.824;4.718;2022-09-09T12:15:18;18.80;99.90
12708;DHT22;6418;50.824;4.718;2022-09-09T12:17:48;18.80;99.90
12708;DHT22;6418;50.824;4.718;2022-09-09T12:20:19;18.90;99.90
12708;DHT22;6418;50.824;4.718;2022-09-09T12:25:50;18.90;99.90
12708;DHT22;6418;50.824;4.718;2022-09-09T12:28:22;18.90;99.90
12708;DHT22;6418;50.824;4.718;2022-09-09T12:30:56;19.00;99.90
12708;DHT22;6418;50.824;4.718;2022-09-09T12:33:34;19.10;99.90
12708;DHT22;6418;50.824;4.718;2022-09-09T12:36:04;19.20;99.90
12708;DHT22;6418;50.824;4.718;2022-09-09T12:38:34;19.20;99.90
12708;DHT22;6418;50.824;4.718;2022-09-09T12:41:01;19.30;99.90
12708;DHT22;6418;50.824;4.718;2022-09-09T12:43:29;19.40;99.90
12708;DHT22;6418;50.824;4.718;2022-09-09T12:45:58;19.40;99.90
12708;DHT22;6418;50.824;4.718;2022-09-09T12:48:31;19.50;99.90
12708;DHT22;6418;50.824;4.718;2022-09-09T12:50:59;19.50;99.90
12708;DHT22;6418;50.824;4.718;2022-09-09T12:53:31;19.60;99.90
12708;DHT22;6418;50.824;4.718;2022-09-09T12:56:01;19.60;99.90
12708;DHT22;6418;50.824;4.718;2022-09-09T12:58:30;19.60;99.90
12708;DHT22;6418;50.824;4.718;2022-09-09T13:01:01;19.60;99.90
12708;DHT22;6418;50.824;4.718;2022-09-09T13:03:31;19.70;99.90
12708;DHT22;6418;50.824;4.718;2022-09-09T13:06:09;19.70;99.90
12708;DHT22;6418;50.824;4.718;2022-09-09T13:08:38;19.70;99.90
12708;DHT22;6418;50.824;4.718;2022-09-09T13:11:12;19.70;99.90
12708;DHT22;6418;50.824;4.718;2022-09-09T13:13:42;19.70;99.90
12708;DHT22;6418;50.824;4.718;2022-09-09T13:16:20;19.80;99.90
12708;DHT22;6418;50.824;4.718;2022-09-09T13:18:48;19.90;99.90
12708;DHT22;6418;50.824;4.718;2022-09-09T13:21:16;19.90;99.90
12708;DHT22;6418;50.824;4.718;2022-09-09T13:23:49;19.90;99.90
12708;DHT22;6418;50.824;4.718;2022-09-09T13:26:23;19.80;99.90
12708;DHT22;6418;50.824;4.718;2022-09-09T13:28:51;19.80;99.90
12708;DHT22;6418;50.824;4.718;2022-09-09T13:31:23;19.80;99.90
12708;DHT22;6418;50.824;4.718;2022-09-09T13:33:52;19.90;99.90
12708;DHT22;6418;50.824;4.718;2022-09-09T13:36:28;19.80;99.90
12708;DHT22;6418;50.824;4.718;2022-09-09T13:38:58;19.90;99.90
12708;DHT22;6418;50.824;4.718;2022-09-09T13:41:29;19.90;99.90
12708;DHT22;6418;50.824;4.718;2022-09-09T13:43:57;19.90;99.90
12708;DHT22;6418;50.824;4.718;2022-09-09T13:46:32;19.90;99.90
12708;DHT22;6418;50.824;4.718;2022-09-09T13:49:02;19.90;99.90
12708;DHT22;6418;50.824;4.718;2022-09-09T13:51:33;19.90;99.90
12708;DHT22;6418;50.824;4.718;2022-09-09T13:54:04;19.90;99.90
12708;DHT22;6418;50.824;4.718;2022-09-09T13:56:32;19.90;99.90
12708;DHT22;6418;50.824;4.718;2022-09-09T13:58:59;19.90;99.90
12708;DHT22;6418;50.824;4.718;2022-09-09T14:01:26;20.00;99.90
12708;DHT22;6418;50.824;4.718;2022-09-09T14:03:53;20.10;99.90
12708;DHT22;6418;50.824;4.718;2022-09-09T14:06:21;20.10;99.90
12708;DHT22;6418;50.824;4.718;2022-09-09T14:08:49;20.20;99.90
12708;DHT22;6418;50.824;4.718;2022-09-09T14:11:18;20.20;99.90
12708;DHT22;6418;50.824;4.718;2022-09-09T14:13:46;20.20;99.90
12708;DHT22;6418;50.824;4.718;2022-09-09T14:16:15;20.20;99.90
12708;DHT22;6418;50.824;4.718;2022-09-09T14:18:42;20.20;99.90
12708;DHT22;6418;50.824;4.718;2022-09-09T14:21:10;20.20;99.90
12708;DHT22;6418;50.824;4.718;2022-09-09T14:23:37;20.20;99.90
12708;DHT22;6418;50.824;4.718;2022-09-09T14:26:04;20.20;99.90
12708;DHT22;6418;50.824;4.718;2022-09-09T14:28:33;20.20;99.90
12708;DHT22;6418;50.824;4.718;2022-09-09T14:31:00;20.20;99.90
12708;DHT22;6418;50.824;4.718;2022-09-09T14:33:28;20.20;99.90
12708;DHT22;6418;50.824;4.718;2022-09-09T14:35:56;20.20;99.90
12708;DHT22;6418;50.824;4.718;2022-09-09T14:38:24;20.20;99.90
12708;DHT22;6418;50.824;4.718;2022-09-09T14:40:51;20.30;99.90
12708;DHT22;6418;50.824;4.718;2022-09-09T14:43:18;20.40;99.90
12708;DHT22;6418;50.824;4.718;2022-09-09T14:45:47;20.40;99.90
12708;DHT22;6418;50.824;4.718;2022-09-09T14:48:15;20.40;99.90
12708;DHT22;6418;50.824;4.718;2022-09-09T14:50:42;20.40;99.90
12708;DHT22;6418;50.824;4.718;2022-09-09T14:53:09;20.40;99.90
12708;DHT22;6418;50.824;4.718;2022-09-09T14:55:37;20.50;99.90
12708;DHT22;6418;50.824;4.718;2022-09-09T14:58:04;20.50;99.90
12708;DHT22;6418;50.824;4.718;2022-09-09T15:00:31;20.50;99.90
12708;DHT22;6418;50.824;4.718;2022-09-09T15:03:00;20.50;99.90
12708;DHT22;6418;50.824;4.718;2022-09-09T15:05:26;20.40;99.90
12708;DHT22;6418;50.824;4.718;2022-09-09T15:07:53;20.40;99.90
12708;DHT22;6418;50.824;4.718;2022-09-09T15:10:22;20.50;99.90
12708;DHT22;6418;50.824;4.718;2022-09-09T15:12:48;20.50;99.90
12708;DHT22;6418;50.824;4.718;2022-09-09T15:15:16;20.60;99.90
12708;DHT22;6418;50.824;4.718;2022-09-09T15:17:43;20.70;99.90
12708;DHT22;6418;50.824;4.718;2022-09-09T15:20:11;20.90;99.90
12708;DHT22;6418;50.824;4.718;2022-09-09T15:22:38;21.00;99.90
12708;DHT22;6418;50.824;4.718;2022-09-09T15:25:06;21.00;99.90
12708;DHT22;6418;50.824;4.718;2022-09-09T15:27:33;21.00;99.90
12708;DHT22;6418;50.824;4.718;2022-09-09T15:30:00;20.90;99.90
12708;DHT22;6418;50.824;4.718;2022-09-09T15:32:27;20.90;99.90
12708;DHT22;6418;50.824;4.718;2022-09-09T15:34:54;20.90;99.90
12708;DHT22;6418;50.824;4.718;2022-09-09T15:37:23;20.80;99.90
12708;DHT22;6418;50.824;4.718;2022-09-09T15:39:49;20.70;99.90
12708;DHT22;6418;50.824;4.718;2022-09-09T15:42:16;20.60;99.90
12708;DHT22;6418;50.824;4.718;2022-09-09T15:44:43;20.60;99.90
12708;DHT22;6418;50.824;4.718;2022-09-09T15:47:12;20.70;99.90
12708;DHT22;6418;50.824;4.718;2022-09-09T15:49:40;20.90;99.90
12708;DHT22;6418;50.824;4.718;2022-09-09T15:52:10;21.10;99.90
12708;DHT22;6418;50.824;4.718;2022-09-09T15:54:38;21.30;99.90
12708;DHT22;6418;50.824;4.718;2022-09-09T15:57:07;21.40;99.90
12708;DHT22;6418;50.824;4.718;2022-09-09T15:59:34;21.50;99.90
12708;DHT22;6418;50.824;4.718;2022-09-09T16:02:02;21.60;99.90
12708;DHT22;6418;50.824;4.718;2022-09-09T16:04:30;21.60;99.90
12708;DHT22;6418;50.824;4.718;2022-09-09T16:07:01;21.60;99.90
12708;DHT22;6418;50.824;4.718;2022-09-09T16:09:29;21.50;99.90
12708;DHT22;6418;50.824;4.718;2022-09-09T16:11:58;21.50;99.90
12708;DHT22;6418;50.824;4.718;2022-09-09T16:14:26;21.50;99.90
12708;DHT22;6418;50.824;4.718;2022-09-09T16:16:53;21.50;99.90
12708;DHT22;6418;50.824;4.718;2022-09-09T16:19:20;21.60;99.90